PWSweather.com
Personal Weather Stations
Station Observations
IPEONIA2
GrivaGR

GrivaGR

Lat: 40.954, Lon: 22.409

Elevation: 1512

Station Type: Ambient Weather:WH2600 Observer-IP

Latest ConditionsUpdated 7:40:44 PM GMT+02:02 Thursday, Aug 16, 2018
Currently Today's Max Today's Min Today's Average
Temperature 76.3°F24.6°C 88.0°F31.1°C 65.7°F18.7°C 76.4°F24.7°C
Dew Point 59.4°F15.2°C 70.0°F21.1°C 56.8°F13.8°C 64.4°F18.0°C
Winds Calm Calm 7.2 mph -11.6 kmh - - 0.2 mph 0.3 kmh
Wind Gusts 4.9 mph7.9 kmh 15.0 mph24.1 kmh - -
Humidity 56% 99% 39% 69%
Pressure 29.71 in1006.1 mb 29.87 in1011.5 mb 29.69 in1005.4 mb -
Precipitation - 0.40 in10.2 mm - -
Hour Temp Dew Point Humidity Winds Wind Gusts Pressure Precip Precip Rate Daily Precip Total
07:40 PM 76.3°F24.6°C 59.4°F15.2°C 56% Calm Calm 4.9 mph7.9 kmh 29.71 in1006.1 mb 0.00 in0.0 mm 0.00 in0.0 mm 0.40 in10.2 mm
07:35 PM 76.3°F24.6°C 59.9°F15.5°C 57% Calm Calm -- 29.70 in1005.8 mb 0.00 in0.0 mm 0.00 in0.0 mm 0.40 in10.2 mm
07:30 PM 76.5°F24.7°C 60.1°F15.6°C 57% Calm Calm 2.5 mph4.0 kmh 29.71 in1006.1 mb 0.00 in0.0 mm 0.00 in0.0 mm 0.40 in10.2 mm
07:25 PM 76.6°F24.8°C 60.8°F16.0°C 58% 0.9 mph W1.4 kmh W 2.5 mph4.0 kmh 29.71 in1006.1 mb 0.00 in0.0 mm 0.00 in0.0 mm 0.40 in10.2 mm
07:20 PM 76.6°F24.8°C 61.7°F16.5°C 60% Calm Calm 2.5 mph4.0 kmh 29.71 in1006.1 mb 0.00 in0.0 mm 0.00 in0.0 mm 0.40 in10.2 mm
07:15 PM 76.6°F24.8°C 61.7°F16.5°C 60% Calm Calm -- 29.70 in1005.8 mb 0.00 in0.0 mm 0.00 in0.0 mm 0.40 in10.2 mm
07:10 PM 76.8°F24.9°C 61.9°F16.6°C 60% Calm Calm -- 29.71 in1006.1 mb 0.00 in0.0 mm 0.00 in0.0 mm 0.40 in10.2 mm
07:05 PM 77.4°F25.2°C 61.9°F16.6°C 59% Calm Calm -- 29.71 in1006.1 mb 0.00 in0.0 mm 0.00 in0.0 mm 0.40 in10.2 mm
06:59 PM 77.2°F25.1°C 61.3°F16.3°C 58% Calm Calm -- 29.71 in1006.1 mb 0.00 in0.0 mm 0.00 in0.0 mm 0.40 in10.2 mm
06:54 PM 77.2°F25.1°C 61.7°F16.5°C 59% Calm Calm -- 29.71 in1006.1 mb 0.00 in0.0 mm 0.00 in0.0 mm 0.40 in10.2 mm
06:49 PM 77.2°F25.1°C 61.7°F16.5°C 59% Calm Calm -- 29.70 in1005.8 mb 0.00 in0.0 mm 0.00 in0.0 mm 0.40 in10.2 mm
06:44 PM 78.3°F25.7°C 64.2°F17.9°C 62% Calm Calm 2.5 mph4.0 kmh 29.70 in1005.8 mb 0.00 in0.0 mm 0.00 in0.0 mm 0.40 in10.2 mm
06:39 PM 78.6°F25.9°C 64.6°F18.1°C 62% Calm Calm -- 29.70 in1005.8 mb 0.00 in0.0 mm 0.00 in0.0 mm 0.40 in10.2 mm
06:34 PM 78.8°F26.0°C 64.8°F18.2°C 62% Calm Calm -- 29.70 in1005.8 mb 0.00 in0.0 mm 0.00 in0.0 mm 0.40 in10.2 mm
06:29 PM 79.0°F26.1°C 63.5°F17.5°C 59% Calm Calm -- 29.70 in1005.8 mb 0.00 in0.0 mm 0.00 in0.0 mm 0.40 in10.2 mm
06:24 PM 79.9°F26.6°C 63.3°F17.4°C 57% Calm Calm -- 29.70 in1005.8 mb 0.00 in0.0 mm 0.00 in0.0 mm 0.40 in10.2 mm
06:19 PM 79.9°F26.6°C 63.3°F17.4°C 57% Calm Calm -- 29.70 in1005.8 mb 0.00 in0.0 mm 0.00 in0.0 mm 0.40 in10.2 mm
06:14 PM 79.9°F26.6°C 64.2°F17.9°C 59% Calm Calm -- 29.69 in1005.4 mb 0.00 in0.0 mm 0.00 in0.0 mm 0.40 in10.2 mm
06:09 PM 80.1°F26.7°C 64.4°F18.0°C 59% Calm Calm -- 29.70 in1005.8 mb 0.00 in0.0 mm 0.00 in0.0 mm 0.40 in10.2 mm
06:04 PM 80.6°F27.0°C 64.4°F18.0°C 58% Calm Calm -- 29.70 in1005.8 mb 0.00 in0.0 mm 0.00 in0.0 mm 0.40 in10.2 mm
05:58 PM 80.6°F27.0°C 63.5°F17.5°C 56% Calm Calm -- 29.70 in1005.8 mb 0.00 in0.0 mm 0.00 in0.0 mm 0.40 in10.2 mm
05:53 PM 80.6°F27.0°C 64.4°F18.0°C 58% Calm Calm -- 29.70 in1005.8 mb 0.00 in0.0 mm 0.00 in0.0 mm 0.40 in10.2 mm
05:48 PM 80.8°F27.1°C 64.0°F17.8°C 57% Calm Calm -- 29.70 in1005.8 mb 0.00 in0.0 mm 0.00 in0.0 mm 0.40 in10.2 mm
05:43 PM 81.5°F27.5°C 64.8°F18.2°C 57% Calm Calm -- 29.70 in1005.8 mb 0.00 in0.0 mm 0.00 in0.0 mm 0.40 in10.2 mm
05:38 PM 81.7°F27.6°C 64.9°F18.3°C 57% Calm Calm -- 29.70 in1005.8 mb 0.00 in0.0 mm 0.00 in0.0 mm 0.40 in10.2 mm
05:33 PM 81.7°F27.6°C 65.5°F18.6°C 58% Calm Calm -- 29.70 in1005.8 mb 0.00 in0.0 mm 0.00 in0.0 mm 0.40 in10.2 mm
05:28 PM 81.9°F27.7°C 64.6°F18.1°C 56% Calm Calm -- 29.70 in1005.8 mb 0.00 in0.0 mm 0.00 in0.0 mm 0.40 in10.2 mm
05:22 PM 82.6°F28.1°C 65.3°F18.5°C 56% Calm Calm -- 29.70 in1005.8 mb 0.00 in0.0 mm 0.00 in0.0 mm 0.40 in10.2 mm
05:17 PM 82.6°F28.1°C 65.3°F18.5°C 56% Calm Calm -- 29.71 in1006.1 mb 0.00 in0.0 mm 0.00 in0.0 mm 0.40 in10.2 mm
05:12 PM 82.6°F28.1°C 64.8°F18.2°C 55% Calm Calm -- 29.70 in1005.8 mb 0.00 in0.0 mm 0.00 in0.0 mm 0.40 in10.2 mm
05:07 PM 86.4°F30.2°C 66.7°F19.3°C 52% Calm Calm -- 29.70 in1005.8 mb 0.00 in0.0 mm 0.00 in0.0 mm 0.40 in10.2 mm
05:02 PM 86.7°F30.4°C 65.8°F18.8°C 50% Calm Calm -- 29.70 in1005.8 mb 0.00 in0.0 mm 0.00 in0.0 mm 0.40 in10.2 mm
04:57 PM 86.7°F30.4°C 64.0°F17.8°C 47% Calm Calm -- 29.70 in1005.8 mb 0.00 in0.0 mm 0.00 in0.0 mm 0.40 in10.2 mm
04:52 PM 86.7°F30.4°C 63.5°F17.5°C 46% Calm Calm 2.5 mph4.0 kmh 29.70 in1005.8 mb 0.00 in0.0 mm 0.00 in0.0 mm 0.40 in10.2 mm
04:47 PM 86.4°F30.2°C 64.4°F18.0°C 48% Calm Calm 2.5 mph4.0 kmh 29.71 in1006.1 mb 0.00 in0.0 mm 0.00 in0.0 mm 0.40 in10.2 mm
04:42 PM 86.2°F30.1°C 64.2°F17.9°C 48% Calm Calm -- 29.70 in1005.8 mb 0.00 in0.0 mm 0.00 in0.0 mm 0.40 in10.2 mm
04:37 PM 86.0°F30.0°C 64.0°F17.8°C 48% Calm Calm -- 29.70 in1005.8 mb 0.00 in0.0 mm 0.00 in0.0 mm 0.40 in10.2 mm
04:31 PM 85.8°F29.9°C 63.9°F17.7°C 48% Calm Calm -- 29.71 in1006.1 mb 0.00 in0.0 mm 0.00 in0.0 mm 0.40 in10.2 mm
04:26 PM 85.1°F29.5°C 64.4°F18.0°C 50% Calm Calm -- 29.71 in1006.1 mb 0.00 in0.0 mm 0.00 in0.0 mm 0.40 in10.2 mm
04:21 PM 84.7°F29.3°C 64.6°F18.1°C 51% Calm Calm -- 29.71 in1006.1 mb 0.00 in0.0 mm 0.00 in0.0 mm 0.40 in10.2 mm
04:16 PM 84.4°F29.1°C 64.2°F17.9°C 51% Calm Calm 4.9 mph7.9 kmh 29.71 in1006.1 mb 0.00 in0.0 mm 0.00 in0.0 mm 0.40 in10.2 mm
04:11 PM 84.2°F29.0°C 64.6°F18.1°C 52% Calm Calm 4.9 mph7.9 kmh 29.71 in1006.1 mb 0.00 in0.0 mm 0.00 in0.0 mm 0.40 in10.2 mm
04:06 PM 84.6°F29.2°C 66.0°F18.9°C 54% Calm Calm 10.1 mph16.3 kmh 29.71 in1006.1 mb 0.00 in0.0 mm 0.00 in0.0 mm 0.40 in10.2 mm
04:01 PM 84.9°F29.4°C 66.4°F19.1°C 54% 7.2 mph SSW11.6 kmh SSW 10.1 mph16.3 kmh 29.71 in1006.1 mb 0.00 in0.0 mm 0.00 in0.0 mm 0.40 in10.2 mm
03:56 PM 85.3°F29.6°C 66.2°F19.0°C 53% 6.5 mph SSW10.5 kmh SSW 12.5 mph20.1 kmh 29.71 in1006.1 mb 0.00 in0.0 mm 0.00 in0.0 mm 0.40 in10.2 mm
03:51 PM 85.6°F29.8°C 66.6°F19.2°C 53% 1.8 mph SSW2.9 kmh SSW 10.1 mph16.3 kmh 29.71 in1006.1 mb 0.00 in0.0 mm 0.00 in0.0 mm 0.40 in10.2 mm
03:46 PM 85.5°F29.7°C 63.0°F17.2°C 47% Calm Calm 4.9 mph7.9 kmh 29.71 in1006.1 mb 0.00 in0.0 mm 0.00 in0.0 mm 0.40 in10.2 mm
03:41 PM 84.9°F29.4°C 61.9°F16.6°C 46% 2.5 mph S4.0 kmh S 4.9 mph7.9 kmh 29.71 in1006.1 mb 0.00 in0.0 mm 0.00 in0.0 mm 0.40 in10.2 mm
03:35 PM 84.6°F29.2°C 61.5°F16.4°C 46% Calm Calm -- 29.71 in1006.1 mb 0.00 in0.0 mm 0.00 in0.0 mm 0.40 in10.2 mm
03:30 PM 84.4°F29.1°C 61.3°F16.3°C 46% Calm Calm 4.9 mph7.9 kmh 29.71 in1006.1 mb 0.00 in0.0 mm 0.00 in0.0 mm 0.40 in10.2 mm
03:25 PM 84.9°F29.4°C 61.9°F16.6°C 46% Calm Calm -- 29.71 in1006.1 mb 0.00 in0.0 mm 0.00 in0.0 mm 0.40 in10.2 mm
03:20 PM 84.7°F29.3°C 62.2°F16.8°C 47% Calm Calm -- 29.72 in1006.4 mb 0.00 in0.0 mm 0.00 in0.0 mm 0.40 in10.2 mm
03:15 PM 84.6°F29.2°C 62.8°F17.1°C 48% Calm Calm 4.9 mph7.9 kmh 29.72 in1006.4 mb 0.00 in0.0 mm 0.00 in0.0 mm 0.40 in10.2 mm
03:10 PM 84.6°F29.2°C 62.1°F16.7°C 47% Calm Calm -- 29.72 in1006.4 mb 0.00 in0.0 mm 0.00 in0.0 mm 0.40 in10.2 mm
03:05 PM 83.1°F28.4°C 61.3°F16.3°C 48% Calm Calm -- 29.72 in1006.4 mb 0.00 in0.0 mm 0.00 in0.0 mm 0.40 in10.2 mm
03:00 PM 83.1°F28.4°C 62.6°F17.0°C 50% Calm Calm -- 29.72 in1006.4 mb 0.00 in0.0 mm 0.00 in0.0 mm 0.40 in10.2 mm
02:55 PM 83.1°F28.4°C 62.6°F17.0°C 50% Calm Calm -- 29.72 in1006.4 mb 0.00 in0.0 mm 0.00 in0.0 mm 0.40 in10.2 mm
02:50 PM 83.1°F28.4°C 62.1°F16.7°C 49% Calm Calm 2.5 mph4.0 kmh 29.72 in1006.4 mb 0.00 in0.0 mm 0.00 in0.0 mm 0.40 in10.2 mm
02:44 PM 84.0°F28.9°C 62.2°F16.8°C 48% Calm Calm -- 29.73 in1006.8 mb 0.00 in0.0 mm 0.00 in0.0 mm 0.40 in10.2 mm
02:39 PM 84.0°F28.9°C 59.2°F15.1°C 43% Calm Calm -- 29.72 in1006.4 mb 0.00 in0.0 mm 0.00 in0.0 mm 0.40 in10.2 mm
02:34 PM 83.7°F28.7°C 60.6°F15.9°C 46% Calm Calm -- 29.73 in1006.8 mb 0.00 in0.0 mm 0.00 in0.0 mm 0.40 in10.2 mm
02:29 PM 83.7°F28.7°C 61.3°F16.3°C 47% Calm Calm -- 29.73 in1006.8 mb 0.00 in0.0 mm 0.00 in0.0 mm 0.40 in10.2 mm
02:24 PM 85.6°F29.8°C 62.4°F16.9°C 46% Calm Calm 4.9 mph7.9 kmh 29.73 in1006.8 mb 0.00 in0.0 mm 0.00 in0.0 mm 0.40 in10.2 mm
02:19 PM 86.4°F30.2°C 63.1°F17.3°C 46% Calm Calm 4.9 mph7.9 kmh 29.73 in1006.8 mb 0.00 in0.0 mm 0.00 in0.0 mm 0.40 in10.2 mm
02:14 PM 86.9°F30.5°C 63.7°F17.6°C 46% 1.8 mph NE2.9 kmh NE 4.9 mph7.9 kmh 29.73 in1006.8 mb 0.00 in0.0 mm 0.00 in0.0 mm 0.40 in10.2 mm
02:09 PM 87.3°F30.7°C 62.6°F17.0°C 44% Calm Calm 4.9 mph7.9 kmh 29.73 in1006.8 mb 0.00 in0.0 mm 0.00 in0.0 mm 0.40 in10.2 mm
02:04 PM 88.0°F31.1°C 62.1°F16.7°C 42% Calm Calm 4.9 mph7.9 kmh 29.73 in1006.8 mb 0.00 in0.0 mm 0.00 in0.0 mm 0.40 in10.2 mm
01:59 PM 88.0°F31.1°C 62.1°F16.7°C 42% 3.8 mph SE6.1 kmh SE 7.6 mph12.2 kmh 29.74 in1007.1 mb 0.00 in0.0 mm 0.00 in0.0 mm 0.40 in10.2 mm
01:53 PM 88.0°F31.1°C 61.3°F16.3°C 41% Calm Calm 7.6 mph12.2 kmh 29.74 in1007.1 mb 0.00 in0.0 mm 0.00 in0.0 mm 0.40 in10.2 mm
01:48 PM 88.0°F31.1°C 60.6°F15.9°C 40% Calm Calm 2.5 mph4.0 kmh 29.75 in1007.5 mb 0.00 in0.0 mm 0.00 in0.0 mm 0.40 in10.2 mm
01:43 PM 85.5°F29.7°C 59.7°F15.4°C 42% Calm Calm 4.9 mph7.9 kmh 29.74 in1007.1 mb 0.00 in0.0 mm 0.00 in0.0 mm 0.40 in10.2 mm
01:38 PM 85.1°F29.5°C 57.4°F14.1°C 39% Calm Calm 4.9 mph7.9 kmh 29.74 in1007.1 mb 0.00 in0.0 mm 0.00 in0.0 mm 0.40 in10.2 mm
01:33 PM 84.7°F29.3°C 58.5°F14.7°C 41% 0.2 mph SSW0.3 kmh SSW 2.5 mph4.0 kmh 29.74 in1007.1 mb 0.00 in0.0 mm 0.00 in0.0 mm 0.40 in10.2 mm
01:28 PM 84.6°F29.2°C 56.8°F13.8°C 39% Calm Calm 2.5 mph4.0 kmh 29.75 in1007.5 mb 0.00 in0.0 mm 0.00 in0.0 mm 0.40 in10.2 mm
01:23 PM 86.0°F30.0°C 60.3°F15.7°C 42% Calm Calm 2.5 mph4.0 kmh 29.74 in1007.1 mb 0.00 in0.0 mm 0.00 in0.0 mm 0.40 in10.2 mm
01:18 PM 86.2°F30.1°C 61.0°F16.1°C 43% Calm Calm 2.5 mph4.0 kmh 29.75 in1007.5 mb 0.00 in0.0 mm 0.00 in0.0 mm 0.40 in10.2 mm
01:13 PM 86.2°F30.1°C 61.7°F16.5°C 44% 0.9 mph SSE1.4 kmh SSE 4.9 mph7.9 kmh 29.75 in1007.5 mb 0.00 in0.0 mm 0.00 in0.0 mm 0.40 in10.2 mm
01:08 PM 86.4°F30.2°C 63.1°F17.3°C 46% 2.5 mph SSW4.0 kmh SSW 10.1 mph16.3 kmh 29.76 in1007.8 mb 0.00 in0.0 mm 0.00 in0.0 mm 0.40 in10.2 mm
01:03 PM 85.8°F29.9°C 62.6°F17.0°C 46% Calm Calm 10.1 mph16.3 kmh 29.75 in1007.5 mb 0.00 in0.0 mm 0.00 in0.0 mm 0.40 in10.2 mm
12:57 PM 85.5°F29.7°C 62.2°F16.8°C 46% Calm Calm 4.9 mph7.9 kmh 29.75 in1007.5 mb 0.00 in0.0 mm 0.00 in0.0 mm 0.40 in10.2 mm
12:52 PM 85.3°F29.6°C 63.3°F17.4°C 48% Calm Calm 4.9 mph7.9 kmh 29.75 in1007.5 mb 0.00 in0.0 mm 0.00 in0.0 mm 0.40 in10.2 mm
12:47 PM 85.5°F29.7°C 63.5°F17.5°C 48% Calm Calm -- 29.75 in1007.5 mb 0.00 in0.0 mm 0.00 in0.0 mm 0.40 in10.2 mm
12:42 PM 84.2°F29.0°C 62.4°F16.9°C 48% Calm Calm -- 29.75 in1007.5 mb 0.00 in0.0 mm 0.00 in0.0 mm 0.40 in10.2 mm
12:37 PM 84.0°F28.9°C 63.3°F17.4°C 50% Calm Calm 4.9 mph7.9 kmh 29.75 in1007.5 mb 0.00 in0.0 mm 0.00 in0.0 mm 0.40 in10.2 mm
12:32 PM 83.8°F28.8°C 63.1°F17.3°C 50% Calm Calm 4.9 mph7.9 kmh 29.76 in1007.8 mb 0.00 in0.0 mm 0.00 in0.0 mm 0.40 in10.2 mm
12:27 PM 83.8°F28.8°C 62.6°F17.0°C 49% Calm Calm -- 29.76 in1007.8 mb 0.00 in0.0 mm 0.00 in0.0 mm 0.40 in10.2 mm
12:21 PM 83.8°F28.8°C 63.1°F17.3°C 50% Calm Calm 2.5 mph4.0 kmh 29.76 in1007.8 mb 0.00 in0.0 mm 0.00 in0.0 mm 0.40 in10.2 mm
12:16 PM 83.5°F28.6°C 63.5°F17.5°C 51% 0.2 mph E0.3 kmh E 2.5 mph4.0 kmh 29.76 in1007.8 mb 0.00 in0.0 mm 0.00 in0.0 mm 0.40 in10.2 mm
12:11 PM 83.1°F28.4°C 64.2°F17.9°C 53% Calm Calm -- 29.77 in1008.1 mb 0.00 in0.0 mm 0.00 in0.0 mm 0.40 in10.2 mm
12:06 PM 82.9°F28.3°C 64.0°F17.8°C 53% Calm Calm 2.5 mph4.0 kmh 29.77 in1008.1 mb 0.00 in0.0 mm 0.00 in0.0 mm 0.40 in10.2 mm
12:01 PM 84.2°F29.0°C 64.0°F17.8°C 51% 1.3 mph NNW2.1 kmh NNW 2.5 mph4.0 kmh 29.76 in1007.8 mb 0.00 in0.0 mm 0.00 in0.0 mm 0.40 in10.2 mm
11:56 AM 84.6°F29.2°C 63.9°F17.7°C 50% Calm Calm 4.9 mph7.9 kmh 29.77 in1008.1 mb 0.00 in0.0 mm 0.00 in0.0 mm 0.40 in10.2 mm
11:51 AM 84.9°F29.4°C 65.8°F18.8°C 53% Calm Calm 4.9 mph7.9 kmh 29.77 in1008.1 mb 0.00 in0.0 mm 0.00 in0.0 mm 0.40 in10.2 mm
11:46 AM 85.1°F29.5°C 66.6°F19.2°C 54% Calm Calm 4.9 mph7.9 kmh 29.77 in1008.1 mb 0.00 in0.0 mm 0.00 in0.0 mm 0.40 in10.2 mm
11:41 AM 83.3°F28.5°C 64.4°F18.0°C 53% Calm Calm 2.5 mph4.0 kmh 29.78 in1008.5 mb 0.00 in0.0 mm 0.00 in0.0 mm 0.40 in10.2 mm
11:36 AM 82.8°F28.2°C 63.9°F17.7°C 53% 1.6 mph SE2.6 kmh SE 7.6 mph12.2 kmh 29.78 in1008.5 mb 0.00 in0.0 mm 0.00 in0.0 mm 0.40 in10.2 mm
11:31 AM 82.6°F28.1°C 66.4°F19.1°C 58% Calm Calm 4.9 mph7.9 kmh 29.78 in1008.5 mb 0.00 in0.0 mm 0.00 in0.0 mm 0.40 in10.2 mm
11:26 AM 82.6°F28.1°C 67.3°F19.6°C 60% Calm Calm -- 29.78 in1008.5 mb 0.00 in0.0 mm 0.00 in0.0 mm 0.40 in10.2 mm
11:21 AM 81.7°F27.6°C 66.9°F19.4°C 61% Calm Calm -- 29.78 in1008.5 mb 0.00 in0.0 mm 0.00 in0.0 mm 0.40 in10.2 mm
11:15 AM 81.7°F27.6°C 66.9°F19.4°C 61% Calm Calm 2.5 mph4.0 kmh 29.78 in1008.5 mb 0.00 in0.0 mm 0.00 in0.0 mm 0.40 in10.2 mm
11:10 AM 81.9°F27.7°C 65.1°F18.4°C 57% Calm Calm -- 29.78 in1008.5 mb 0.00 in0.0 mm 0.00 in0.0 mm 0.40 in10.2 mm
11:05 AM 81.7°F27.6°C 65.5°F18.6°C 58% Calm Calm -- 29.78 in1008.5 mb 0.00 in0.0 mm 0.00 in0.0 mm 0.40 in10.2 mm
11:00 AM 79.7°F26.5°C 65.1°F18.4°C 61% Calm Calm 2.5 mph4.0 kmh 29.78 in1008.5 mb 0.00 in0.0 mm 0.00 in0.0 mm 0.40 in10.2 mm
10:55 AM 79.3°F26.3°C 65.7°F18.7°C 63% Calm Calm 4.9 mph7.9 kmh 29.78 in1008.5 mb 0.00 in0.0 mm 0.00 in0.0 mm 0.40 in10.2 mm
10:50 AM 79.3°F26.3°C 66.6°F19.2°C 65% Calm Calm 4.9 mph7.9 kmh 29.79 in1008.8 mb 0.00 in0.0 mm 0.00 in0.0 mm 0.40 in10.2 mm
10:45 AM 79.5°F26.4°C 68.5°F20.3°C 69% Calm Calm 2.5 mph4.0 kmh 29.79 in1008.8 mb 0.00 in0.0 mm 0.00 in0.0 mm 0.40 in10.2 mm
10:40 AM 77.0°F25.0°C 67.6°F19.8°C 73% Calm Calm -- 29.78 in1008.5 mb 0.00 in0.0 mm 0.00 in0.0 mm 0.40 in10.2 mm
10:35 AM 77.0°F25.0°C 68.9°F20.5°C 76% Calm Calm -- 29.79 in1008.8 mb 0.00 in0.0 mm 0.00 in0.0 mm 0.40 in10.2 mm
10:30 AM 77.0°F25.0°C 68.0°F20.0°C 74% Calm Calm -- 29.78 in1008.5 mb 0.00 in0.0 mm 0.00 in0.0 mm 0.40 in10.2 mm
10:24 AM 77.2°F25.1°C 69.1°F20.6°C 76% Calm Calm -- 29.79 in1008.8 mb 0.00 in0.0 mm 0.00 in0.0 mm 0.40 in10.2 mm
10:19 AM 77.5°F25.3°C 68.5°F20.3°C 74% Calm Calm -- 29.79 in1008.8 mb 0.00 in0.0 mm 0.00 in0.0 mm 0.40 in10.2 mm
10:14 AM 77.4°F25.2°C 67.3°F19.6°C 71% Calm Calm -- 29.78 in1008.5 mb 0.00 in0.0 mm 0.00 in0.0 mm 0.40 in10.2 mm
10:09 AM 77.2°F25.1°C 68.2°F20.1°C 74% Calm Calm -- 29.87 in1011.5 mb 0.00 in0.0 mm 0.00 in0.0 mm 0.40 in10.2 mm
10:01 AM 75.0°F23.9°C 66.2°F19.0°C 74% Calm Calm -- 29.80 in1009.1 mb 0.00 in0.0 mm 0.00 in0.0 mm 0.40 in10.2 mm
09:56 AM 74.8°F23.8°C 66.7°F19.3°C 76% Calm Calm -- 29.79 in1008.8 mb 0.00 in0.0 mm 0.00 in0.0 mm 0.40 in10.2 mm
09:51 AM 74.8°F23.8°C 67.1°F19.5°C 77% Calm Calm -- 29.80 in1009.1 mb 0.00 in0.0 mm 0.00 in0.0 mm 0.40 in10.2 mm
09:46 AM 74.8°F23.8°C 67.1°F19.5°C 77% Calm Calm -- 29.80 in1009.1 mb 0.00 in0.0 mm 0.00 in0.0 mm 0.40 in10.2 mm
09:41 AM 74.3°F23.5°C 66.6°F19.2°C 77% Calm Calm -- 29.80 in1009.1 mb 0.00 in0.0 mm 0.00 in0.0 mm 0.40 in10.2 mm
09:36 AM 74.3°F23.5°C 66.6°F19.2°C 77% Calm Calm -- 29.80 in1009.1 mb 0.00 in0.0 mm 0.00 in0.0 mm 0.40 in10.2 mm
09:31 AM 74.3°F23.5°C 66.9°F19.4°C 78% Calm Calm -- 29.80 in1009.1 mb 0.00 in0.0 mm 0.00 in0.0 mm 0.40 in10.2 mm
09:25 AM 74.3°F23.5°C 66.6°F19.2°C 77% Calm Calm -- 29.80 in1009.1 mb 0.00 in0.0 mm 0.00 in0.0 mm 0.40 in10.2 mm
09:20 AM 73.8°F23.2°C 65.7°F18.7°C 76% Calm Calm -- 29.80 in1009.1 mb 0.00 in0.0 mm 0.00 in0.0 mm 0.40 in10.2 mm
09:15 AM 73.8°F23.2°C 65.3°F18.5°C 75% Calm Calm -- 29.80 in1009.1 mb 0.00 in0.0 mm 0.00 in0.0 mm 0.40 in10.2 mm
09:10 AM 73.8°F23.2°C 66.0°F18.9°C 77% Calm Calm -- 29.80 in1009.1 mb 0.00 in0.0 mm 0.00 in0.0 mm 0.40 in10.2 mm
09:05 AM 73.8°F23.2°C 67.6°F19.8°C 81% Calm Calm -- 29.80 in1009.1 mb 0.00 in0.0 mm 0.00 in0.0 mm 0.40 in10.2 mm
09:00 AM 73.4°F23.0°C 67.6°F19.8°C 82% Calm Calm -- 29.80 in1009.1 mb 0.00 in0.0 mm 0.00 in0.0 mm 0.40 in10.2 mm
08:55 AM 73.4°F23.0°C 70.0°F21.1°C 89% Calm Calm -- 29.79 in1008.8 mb 0.00 in0.0 mm 0.00 in0.0 mm 0.40 in10.2 mm
08:50 AM 73.4°F23.0°C 68.2°F20.1°C 84% Calm Calm -- 29.80 in1009.1 mb 0.00 in0.0 mm 0.00 in0.0 mm 0.40 in10.2 mm
08:45 AM 73.4°F23.0°C 65.7°F18.7°C 77% Calm Calm -- 29.80 in1009.1 mb 0.00 in0.0 mm 0.00 in0.0 mm 0.40 in10.2 mm
08:40 AM 75.0°F23.9°C 67.6°F19.8°C 78% Calm Calm -- 29.80 in1009.1 mb 0.00 in0.0 mm 0.00 in0.0 mm 0.40 in10.2 mm
08:35 AM 75.2°F24.0°C 67.5°F19.7°C 77% Calm Calm -- 29.80 in1009.1 mb 0.00 in0.0 mm 0.00 in0.0 mm 0.40 in10.2 mm
08:30 AM 75.2°F24.0°C 66.7°F19.3°C 75% Calm Calm -- 29.80 in1009.1 mb 0.00 in0.0 mm 0.00 in0.0 mm 0.40 in10.2 mm
08:24 AM 75.4°F24.1°C 65.7°F18.7°C 72% Calm Calm -- 29.80 in1009.1 mb 0.00 in0.0 mm 0.00 in0.0 mm 0.40 in10.2 mm
08:19 AM 75.9°F24.4°C 66.2°F19.0°C 72% Calm Calm -- 29.80 in1009.1 mb 0.00 in0.0 mm 0.00 in0.0 mm 0.40 in10.2 mm
08:14 AM 75.9°F24.4°C 66.6°F19.2°C 73% Calm Calm -- 29.80 in1009.1 mb 0.00 in0.0 mm 0.00 in0.0 mm 0.40 in10.2 mm
08:09 AM 75.9°F24.4°C 66.6°F19.2°C 73% Calm Calm -- 29.79 in1008.8 mb 0.00 in0.0 mm 0.00 in0.0 mm 0.40 in10.2 mm
08:04 AM 75.9°F24.4°C 66.2°F19.0°C 72% Calm Calm -- 29.79 in1008.8 mb 0.00 in0.0 mm 0.00 in0.0 mm 0.40 in10.2 mm
07:59 AM 73.4°F23.0°C 64.6°F18.1°C 74% Calm Calm -- 29.79 in1008.8 mb 0.00 in0.0 mm 0.00 in0.0 mm 0.40 in10.2 mm
07:54 AM 73.2°F22.9°C 65.7°F18.7°C 77% Calm Calm -- 29.79 in1008.8 mb 0.00 in0.0 mm 0.00 in0.0 mm 0.40 in10.2 mm
07:49 AM 73.0°F22.8°C 64.9°F18.3°C 76% Calm Calm -- 29.79 in1008.8 mb 0.00 in0.0 mm 0.00 in0.0 mm 0.40 in10.2 mm
07:44 AM 73.0°F22.8°C 64.2°F17.9°C 74% Calm Calm -- 29.79 in1008.8 mb 0.00 in0.0 mm 0.00 in0.0 mm 0.40 in10.2 mm
07:39 AM 71.8°F22.1°C 63.9°F17.7°C 76% Calm Calm -- 29.78 in1008.5 mb 0.00 in0.0 mm 0.00 in0.0 mm 0.40 in10.2 mm
07:34 AM 71.4°F21.9°C 63.5°F17.5°C 76% Calm Calm -- 29.78 in1008.5 mb 0.00 in0.0 mm 0.00 in0.0 mm 0.40 in10.2 mm
07:29 AM 71.4°F21.9°C 63.9°F17.7°C 77% Calm Calm -- 29.78 in1008.5 mb 0.00 in0.0 mm 0.00 in0.0 mm 0.40 in10.2 mm
07:23 AM 71.2°F21.8°C 66.2°F19.0°C 84% Calm Calm -- 29.79 in1008.8 mb 0.00 in0.0 mm 0.00 in0.0 mm 0.40 in10.2 mm
07:18 AM 71.1°F21.7°C 63.1°F17.3°C 76% Calm Calm -- 29.79 in1008.8 mb 0.00 in0.0 mm 0.00 in0.0 mm 0.40 in10.2 mm
07:13 AM 71.1°F21.7°C 64.2°F17.9°C 79% Calm Calm -- 29.79 in1008.8 mb 0.00 in0.0 mm 0.00 in0.0 mm 0.40 in10.2 mm
07:08 AM 71.1°F21.7°C 63.1°F17.3°C 76% Calm Calm -- 29.79 in1008.8 mb 0.00 in0.0 mm 0.00 in0.0 mm 0.40 in10.2 mm
07:03 AM 71.1°F21.7°C 63.5°F17.5°C 77% Calm Calm -- 29.79 in1008.8 mb 0.00 in0.0 mm 0.00 in0.0 mm 0.40 in10.2 mm
06:58 AM 71.4°F21.9°C 65.7°F18.7°C 82% Calm Calm -- 29.79 in1008.8 mb 0.00 in0.0 mm 0.00 in0.0 mm 0.40 in10.2 mm
06:53 AM 71.6°F22.0°C 65.5°F18.6°C 81% Calm Calm -- 29.79 in1008.8 mb 0.00 in0.0 mm 0.00 in0.0 mm 0.40 in10.2 mm
06:48 AM 71.6°F22.0°C 64.0°F17.8°C 77% Calm Calm -- 29.79 in1008.8 mb 0.00 in0.0 mm 0.00 in0.0 mm 0.40 in10.2 mm
06:43 AM 71.8°F22.1°C 63.0°F17.2°C 74% Calm Calm -- 29.79 in1008.8 mb 0.00 in0.0 mm 0.00 in0.0 mm 0.40 in10.2 mm
06:38 AM 70.2°F21.2°C 62.2°F16.8°C 76% Calm Calm -- 29.79 in1008.8 mb 0.00 in0.0 mm 0.00 in0.0 mm 0.40 in10.2 mm
06:32 AM 70.0°F21.1°C 62.1°F16.7°C 76% Calm Calm -- 29.78 in1008.5 mb 0.00 in0.0 mm 0.00 in0.0 mm 0.40 in10.2 mm
06:27 AM 69.8°F21.0°C 63.0°F17.2°C 79% Calm Calm -- 29.78 in1008.5 mb 0.00 in0.0 mm 0.00 in0.0 mm 0.40 in10.2 mm
06:22 AM 69.8°F21.0°C 63.3°F17.4°C 80% Calm Calm -- 29.79 in1008.8 mb 0.00 in0.0 mm 0.00 in0.0 mm 0.40 in10.2 mm
06:17 AM 67.6°F19.8°C 62.2°F16.8°C 83% Calm Calm -- 29.79 in1008.8 mb 0.00 in0.0 mm 0.00 in0.0 mm 0.40 in10.2 mm
06:12 AM 67.3°F19.6°C 63.0°F17.2°C 86% Calm Calm -- 29.79 in1008.8 mb 0.00 in0.0 mm 0.00 in0.0 mm 0.40 in10.2 mm
06:07 AM 67.3°F19.6°C 63.9°F17.7°C 89% Calm Calm -- 29.79 in1008.8 mb 0.00 in0.0 mm 0.00 in0.0 mm 0.40 in10.2 mm
06:02 AM 66.6°F19.2°C 63.9°F17.7°C 91% Calm Calm -- 29.79 in1008.8 mb 0.00 in0.0 mm 0.00 in0.0 mm 0.40 in10.2 mm
05:57 AM 66.6°F19.2°C 64.2°F17.9°C 92% Calm Calm -- 29.79 in1008.8 mb 0.00 in0.0 mm 0.00 in0.0 mm 0.40 in10.2 mm
05:52 AM 66.4°F19.1°C 64.0°F17.8°C 92% Calm Calm -- 29.79 in1008.8 mb 0.00 in0.0 mm 0.00 in0.0 mm 0.40 in10.2 mm
05:46 AM 66.4°F19.1°C 63.7°F17.6°C 91% Calm Calm -- 29.79 in1008.8 mb 0.00 in0.0 mm 0.00 in0.0 mm 0.40 in10.2 mm
05:41 AM 68.9°F20.5°C 66.2°F19.0°C 91% Calm Calm -- 29.79 in1008.8 mb 0.00 in0.0 mm 0.00 in0.0 mm 0.40 in10.2 mm
05:36 AM 69.6°F20.9°C 66.2°F19.0°C 89% Calm Calm 2.5 mph4.0 kmh 29.78 in1008.5 mb 0.00 in0.0 mm 0.00 in0.0 mm 0.40 in10.2 mm
05:31 AM 70.0°F21.1°C 64.9°F18.3°C 84% Calm Calm -- 29.78 in1008.5 mb 0.00 in0.0 mm 0.00 in0.0 mm 0.40 in10.2 mm
05:26 AM 70.0°F21.1°C 63.9°F17.7°C 81% Calm Calm -- 29.77 in1008.1 mb 0.00 in0.0 mm 0.00 in0.0 mm 0.40 in10.2 mm
05:21 AM 69.4°F20.8°C 61.9°F16.6°C 77% Calm Calm -- 29.77 in1008.1 mb 0.00 in0.0 mm 0.00 in0.0 mm 0.40 in10.2 mm
05:16 AM 69.3°F20.7°C 61.3°F16.3°C 76% Calm Calm -- 29.77 in1008.1 mb 0.01 in0.3 mm 0.00 in0.0 mm 0.40 in10.2 mm
05:11 AM 69.1°F20.6°C 61.5°F16.4°C 77% Calm Calm 2.5 mph4.0 kmh 29.77 in1008.1 mb 0.01 in0.3 mm 0.00 in0.0 mm 0.40 in10.2 mm
05:06 AM 69.1°F20.6°C 64.4°F18.0°C 85% Calm Calm 2.5 mph4.0 kmh 29.77 in1008.1 mb 0.02 in0.5 mm 0.00 in0.0 mm 0.40 in10.2 mm
05:01 AM 67.3°F19.6°C 61.0°F16.1°C 80% Calm Calm -- 29.77 in1008.1 mb 0.02 in0.5 mm 0.00 in0.0 mm 0.40 in10.2 mm
04:55 AM 66.7°F19.3°C 60.8°F16.0°C 81% Calm Calm 4.9 mph7.9 kmh 29.77 in1008.1 mb 0.02 in0.5 mm 0.00 in0.0 mm 0.40 in10.2 mm
04:50 AM 66.4°F19.1°C 61.0°F16.1°C 83% Calm Calm 4.9 mph7.9 kmh 29.77 in1008.1 mb 0.04 in1.0 mm 0.00 in0.0 mm 0.40 in10.2 mm
04:45 AM 66.2°F19.0°C 63.9°F17.7°C 92% Calm Calm 2.5 mph4.0 kmh 29.77 in1008.1 mb 0.06 in1.5 mm 0.00 in0.0 mm 0.40 in10.2 mm
04:40 AM 66.2°F19.0°C 63.5°F17.5°C 91% 0.2 mph NW0.3 kmh NW 2.5 mph4.0 kmh 29.77 in1008.1 mb 0.08 in2.0 mm 0.00 in0.0 mm 0.40 in10.2 mm
04:35 AM 66.2°F19.0°C 64.0°F17.8°C 93% Calm Calm 4.9 mph7.9 kmh 29.78 in1008.5 mb 0.15 in3.8 mm 0.00 in0.0 mm 0.40 in10.2 mm
04:30 AM 66.2°F19.0°C 64.4°F18.0°C 94% Calm Calm 4.9 mph7.9 kmh 29.78 in1008.5 mb 0.27 in6.9 mm 0.00 in0.0 mm 0.40 in10.2 mm
04:25 AM 66.2°F19.0°C 64.9°F18.3°C 96% Calm Calm 2.5 mph4.0 kmh 29.78 in1008.5 mb 0.32 in8.1 mm 0.00 in0.0 mm 0.40 in10.2 mm
04:20 AM 66.4°F19.1°C 65.1°F18.4°C 96% Calm Calm 4.9 mph7.9 kmh 29.78 in1008.5 mb 0.35 in8.9 mm 0.12 in3.0 mm 0.40 in10.2 mm
04:15 AM 66.4°F19.1°C 65.5°F18.6°C 97% 1.8 mph N2.9 kmh N 4.9 mph7.9 kmh 29.78 in1008.5 mb 0.34 in8.6 mm 0.12 in3.0 mm 0.39 in9.9 mm
04:10 AM 66.4°F19.1°C 65.5°F18.6°C 97% Calm Calm 2.5 mph4.0 kmh 29.79 in1008.8 mb 0.33 in8.4 mm 0.00 in0.0 mm 0.38 in9.7 mm
04:04 AM 66.4°F19.1°C 65.8°F18.8°C 98% Calm Calm 2.5 mph4.0 kmh 29.78 in1008.5 mb 0.33 in8.4 mm 0.00 in0.0 mm 0.38 in9.7 mm
03:59 AM 65.8°F18.8°C 65.5°F18.6°C 99% Calm Calm 2.5 mph4.0 kmh 29.79 in1008.8 mb 0.33 in8.4 mm 0.12 in3.0 mm 0.38 in9.7 mm
03:54 AM 65.8°F18.8°C 65.5°F18.6°C 99% 0.2 mph E0.3 kmh E 2.5 mph4.0 kmh 29.79 in1008.8 mb 0.32 in8.1 mm 0.00 in0.0 mm 0.37 in9.4 mm
03:49 AM 65.7°F18.7°C 65.3°F18.5°C 99% Calm Calm 2.5 mph4.0 kmh 29.79 in1008.8 mb 0.32 in8.1 mm 0.48 in12.2 mm 0.37 in9.4 mm
03:44 AM 65.7°F18.7°C 65.3°F18.5°C 99% Calm Calm 4.9 mph7.9 kmh 29.80 in1009.1 mb 0.28 in7.1 mm 0.24 in6.1 mm 0.34 in8.6 mm
03:39 AM 66.9°F19.4°C 66.6°F19.2°C 99% 1.8 mph NE2.9 kmh NE 4.9 mph7.9 kmh 29.80 in1009.1 mb 0.26 in6.6 mm 0.96 in24.4 mm 0.31 in7.9 mm
03:34 AM 67.1°F19.5°C 66.7°F19.3°C 99% 0.7 mph N1.1 kmh N 7.6 mph12.2 kmh 29.80 in1009.1 mb 0.18 in4.6 mm 1.32 in33.5 mm 0.22 in5.6 mm
03:29 AM 67.3°F19.6°C 66.4°F19.1°C 97% 5.4 mph N8.7 kmh N 15.0 mph24.1 kmh 29.80 in1009.1 mb 0.07 in1.8 mm 0.60 in15.2 mm 0.13 in3.3 mm
03:24 AM 67.3°F19.6°C 66.9°F19.4°C 99% 4.7 mph NNW7.6 kmh NNW 7.6 mph12.2 kmh 29.80 in1009.1 mb 0.02 in0.5 mm 0.24 in6.1 mm 0.07 in1.8 mm
03:19 AM 68.2°F20.1°C 67.8°F19.9°C 99% Calm Calm -- 29.80 in1009.1 mb 0.00 in0.0 mm 0.00 in0.0 mm 0.05 in1.3 mm
03:13 AM 68.4°F20.2°C 68.0°F20.0°C 99% Calm Calm -- 29.80 in1009.1 mb 0.01 in0.3 mm 0.00 in0.0 mm 0.05 in1.3 mm
03:08 AM 68.4°F20.2°C 67.1°F19.5°C 96% Calm Calm -- 29.79 in1008.8 mb 0.02 in0.5 mm 0.00 in0.0 mm 0.05 in1.3 mm
03:03 AM 68.5°F20.3°C 67.1°F19.5°C 95% Calm Calm -- 29.79 in1008.8 mb 0.04 in1.0 mm 0.00 in0.0 mm 0.05 in1.3 mm
02:58 AM 67.8°F19.9°C 66.0°F18.9°C 94% Calm Calm -- 29.79 in1008.8 mb 0.05 in1.3 mm 0.00 in0.0 mm 0.05 in1.3 mm
02:53 AM 68.0°F20.0°C 67.6°F19.8°C 99% Calm Calm -- 29.80 in1009.1 mb 0.05 in1.3 mm 0.00 in0.0 mm 0.05 in1.3 mm
02:48 AM 68.0°F20.0°C 67.1°F19.5°C 97% Calm Calm -- 29.80 in1009.1 mb 0.05 in1.3 mm 0.00 in0.0 mm 0.05 in1.3 mm
02:43 AM 68.0°F20.0°C 66.7°F19.3°C 96% Calm Calm -- 29.80 in1009.1 mb 0.05 in1.3 mm 0.00 in0.0 mm 0.05 in1.3 mm
02:38 AM 67.3°F19.6°C 66.0°F18.9°C 96% Calm Calm -- 29.79 in1008.8 mb 0.05 in1.3 mm 0.00 in0.0 mm 0.05 in1.3 mm
02:33 AM 67.1°F19.5°C 65.8°F18.8°C 96% Calm Calm -- 29.79 in1008.8 mb 0.05 in1.3 mm 0.00 in0.0 mm 0.05 in1.3 mm
02:28 AM 67.1°F19.5°C 66.2°F19.0°C 97% Calm Calm -- 29.79 in1008.8 mb 0.05 in1.3 mm 0.00 in0.0 mm 0.05 in1.3 mm
02:23 AM 67.1°F19.5°C 66.2°F19.0°C 97% Calm Calm -- 29.80 in1009.1 mb 0.05 in1.3 mm 0.00 in0.0 mm 0.05 in1.3 mm
02:17 AM 68.9°F20.5°C 68.4°F20.2°C 98% Calm Calm -- 29.79 in1008.8 mb 0.05 in1.3 mm 0.12 in3.0 mm 0.05 in1.3 mm
02:12 AM 69.3°F20.7°C 67.8°F19.9°C 95% Calm Calm -- 29.79 in1008.8 mb 0.04 in1.0 mm 0.24 in6.1 mm 0.04 in1.0 mm
02:07 AM 69.6°F20.9°C 67.5°F19.7°C 93% Calm Calm -- 29.80 in1009.1 mb 0.02 in0.5 mm 0.24 in6.1 mm 0.02 in0.5 mm
02:02 AM 69.6°F20.9°C 65.8°F18.8°C 88% Calm Calm -- 29.80 in1009.1 mb 0.00 in0.0 mm 0.00 in0.0 mm 0.00 in0.0 mm
01:57 AM 72.0°F22.2°C 66.6°F19.2°C 83% Calm Calm -- 29.80 in1009.1 mb 0.00 in0.0 mm 0.00 in0.0 mm 0.00 in0.0 mm
01:52 AM 72.1°F22.3°C 64.9°F18.3°C 78% Calm Calm -- 29.80 in1009.1 mb 0.00 in0.0 mm 0.00 in0.0 mm 0.00 in0.0 mm
01:47 AM 72.3°F22.4°C 64.8°F18.2°C 77% Calm Calm -- 29.80 in1009.1 mb 0.00 in0.0 mm 0.00 in0.0 mm 0.00 in0.0 mm
01:42 AM 72.3°F22.4°C 64.8°F18.2°C 77% Calm Calm -- 29.80 in1009.1 mb 0.00 in0.0 mm 0.00 in0.0 mm 0.00 in0.0 mm
01:37 AM 72.1°F22.3°C 64.6°F18.1°C 77% Calm Calm -- 29.80 in1009.1 mb 0.00 in0.0 mm 0.00 in0.0 mm 0.00 in0.0 mm
01:32 AM 72.1°F22.3°C 64.6°F18.1°C 77% Calm Calm -- 29.80 in1009.1 mb 0.00 in0.0 mm 0.00 in0.0 mm 0.00 in0.0 mm
01:27 AM 72.3°F22.4°C 64.8°F18.2°C 77% Calm Calm -- 29.79 in1008.8 mb 0.00 in0.0 mm 0.00 in0.0 mm 0.00 in0.0 mm
01:21 AM 72.3°F22.4°C 65.1°F18.4°C 78% Calm Calm -- 29.79 in1008.8 mb 0.00 in0.0 mm 0.00 in0.0 mm 0.00 in0.0 mm
01:16 AM 71.4°F21.9°C 64.2°F17.9°C 78% Calm Calm -- 29.78 in1008.5 mb 0.00 in0.0 mm 0.00 in0.0 mm 0.00 in0.0 mm
01:11 AM 71.4°F21.9°C 64.2°F17.9°C 78% Calm Calm -- 29.79 in1008.8 mb 0.00 in0.0 mm 0.00 in0.0 mm 0.00 in0.0 mm
01:06 AM 71.4°F21.9°C 64.2°F17.9°C 78% Calm Calm -- 29.79 in1008.8 mb 0.00 in0.0 mm 0.00 in0.0 mm 0.00 in0.0 mm
01:01 AM 71.2°F21.8°C 64.4°F18.0°C 79% Calm Calm -- 29.78 in1008.5 mb 0.00 in0.0 mm 0.00 in0.0 mm 0.00 in0.0 mm
12:56 AM 71.2°F21.8°C 64.8°F18.2°C 80% Calm Calm -- 29.79 in1008.8 mb 0.00 in0.0 mm 0.00 in0.0 mm 0.00 in0.0 mm
12:51 AM 71.2°F21.8°C 65.1°F18.4°C 81% Calm Calm -- 29.78 in1008.5 mb 0.00 in0.0 mm 0.00 in0.0 mm 0.00 in0.0 mm
12:46 AM 71.2°F21.8°C 65.5°F18.6°C 82% Calm Calm -- 29.79 in1008.8 mb 0.00 in0.0 mm 0.00 in0.0 mm 0.00 in0.0 mm
12:41 AM 71.2°F21.8°C 65.5°F18.6°C 82% Calm Calm -- 29.79 in1008.8 mb 0.00 in0.0 mm 0.00 in0.0 mm 0.00 in0.0 mm
12:36 AM 71.1°F21.7°C 64.9°F18.3°C 81% Calm Calm -- 29.78 in1008.5 mb 0.00 in0.0 mm 0.00 in0.0 mm 0.00 in0.0 mm
12:31 AM 71.1°F21.7°C 64.9°F18.3°C 81% Calm Calm -- 29.79 in1008.8 mb 0.00 in0.0 mm 0.00 in0.0 mm 0.00 in0.0 mm
12:25 AM 71.1°F21.7°C 64.9°F18.3°C 81% Calm Calm -- 29.78 in1008.5 mb 0.00 in0.0 mm 0.00 in0.0 mm 0.00 in0.0 mm
12:20 AM 71.1°F21.7°C 64.9°F18.3°C 81% Calm Calm -- 29.79 in1008.8 mb 0.00 in0.0 mm 0.00 in0.0 mm 0.00 in0.0 mm
12:15 AM 71.4°F21.9°C 65.7°F18.7°C 82% Calm Calm -- 29.78 in1008.5 mb 0.00 in0.0 mm 0.00 in0.0 mm 0.00 in0.0 mm
12:10 AM 71.4°F21.9°C 65.3°F18.5°C 81% Calm Calm -- 29.78 in1008.5 mb 0.00 in0.0 mm 0.00 in0.0 mm 0.00 in0.0 mm
12:05 AM 71.4°F21.9°C 65.3°F18.5°C 81% Calm Calm -- 29.78 in1008.5 mb 0.00 in0.0 mm 0.00 in0.0 mm 0.00 in0.0 mm
12:00 AM 71.4°F21.9°C 64.9°F18.3°C 80% Calm Calm -- 29.78 in1008.5 mb 0.00 in0.0 mm 0.00 in0.0 mm 0.00 in0.0 mm